createdAt,value
2023-04-13T00:02:24.164Z,99176.88
2023-04-13T00:04:51.216Z,99162.69
2023-04-13T00:07:19.087Z,99174.59
2023-04-13T00:09:47.439Z,99175.72
2023-04-13T00:12:21.531Z,99188.66
2023-04-13T00:14:51.801Z,99172.78
2023-04-13T00:17:18.496Z,99184.09
2023-04-13T00:19:48.475Z,99188.16
2023-04-13T00:22:17.933Z,99185.66
2023-04-13T00:24:44.769Z,99190.44
2023-04-13T00:27:12.465Z,99196.13
2023-04-13T00:29:39.733Z,99197.75
2023-04-13T00:32:06.659Z,99194.72
2023-04-13T00:34:33.712Z,99209.53
2023-04-13T00:37:02.310Z,99197.09
2023-04-13T00:39:31.317Z,99198.84
2023-04-13T00:42:02.449Z,99205.66
2023-04-13T00:44:31.010Z,99201.06
2023-04-13T00:46:57.768Z,99214.00
2023-04-13T00:49:24.612Z,99206.59
2023-04-13T00:51:52.380Z,99221.28
2023-04-13T00:54:19.568Z,99188.03
2023-04-13T00:56:46.414Z,99206.72
2023-04-13T00:59:14.409Z,99209.81
2023-04-13T01:02:01.433Z,99211.03
2023-04-13T01:04:30.620Z,99212.34
2023-04-13T01:06:57.441Z,99201.63
2023-04-13T01:09:32.804Z,99203.06
2023-04-13T01:12:01.973Z,99215.44
2023-04-13T01:14:50.609Z,99214.91
2023-04-13T01:17:24.241Z,99217.81
2023-04-13T01:19:57.079Z,99207.22
2023-04-13T01:22:27.715Z,99211.63
2023-04-13T01:25:25.898Z,99221.53
2023-04-13T01:28:01.553Z,99217.94
2023-04-13T01:30:31.676Z,99222.88
2023-04-13T01:32:59.791Z,99222.19
2023-04-13T01:35:29.330Z,99214.00
2023-04-13T01:38:00.168Z,99226.63
2023-04-13T01:40:30.935Z,99225.00
2023-04-13T01:42:58.156Z,99218.41
2023-04-13T01:45:46.435Z,99218.72
2023-04-13T01:48:22.817Z,99211.63
2023-04-13T01:51:09.446Z,99224.97
2023-04-13T01:53:45.043Z,99236.25
2023-04-13T01:56:15.922Z,99232.66
2023-04-13T01:58:43.383Z,99245.13
2023-04-13T02:01:14.685Z,99275.50
2023-04-13T02:03:43.708Z,99278.63
2023-04-13T02:06:11.127Z,99277.84
2023-04-13T02:08:42.127Z,99274.03
2023-04-13T02:11:10.297Z,99291.28
2023-04-13T02:13:37.538Z,99296.97
2023-04-13T02:16:12.478Z,99285.16
2023-04-13T02:18:41.720Z,99288.22
2023-04-13T02:21:12.475Z,99293.16
2023-04-13T02:23:41.134Z,99298.44
2023-04-13T02:26:08.860Z,99306.66
2023-04-13T02:28:36.569Z,99308.31
2023-04-13T02:31:03.905Z,99315.00
2023-04-13T02:33:32.246Z,99317.22
2023-04-13T02:36:02.653Z,99308.69
2023-04-13T02:38:34.431Z,99318.38
2023-04-13T02:41:09.874Z,99330.28
2023-04-13T02:43:36.850Z,99332.75
2023-04-13T02:46:04.476Z,99338.81
2023-04-13T02:48:38.099Z,99348.63
2023-04-13T02:51:06.596Z,99357.25
2023-04-13T02:53:37.636Z,99346.69
2023-04-13T02:56:06.840Z,99354.59
2023-04-13T02:58:34.739Z,99354.91
2023-04-13T03:01:05.622Z,99367.88
2023-04-13T03:03:33.316Z,99371.22
2023-04-13T03:06:01.548Z,99379.09
2023-04-13T03:08:44.005Z,99382.22
2023-04-13T03:11:17.336Z,99378.50
2023-04-13T03:13:54.260Z,99388.00
2023-04-13T03:16:21.860Z,99398.38
2023-04-13T03:18:48.859Z,99396.22
2023-04-13T03:21:16.299Z,99407.16
2023-04-13T03:23:52.406Z,99414.72
2023-04-13T03:26:21.057Z,99410.41
2023-04-13T03:28:47.834Z,99416.94
2023-04-13T03:31:15.256Z,99423.88
2023-04-13T03:33:42.100Z,99426.50
2023-04-13T03:36:10.991Z,99435.06
2023-04-13T03:38:38.402Z,99438.53
2023-04-13T03:41:06.414Z,99444.00
2023-04-13T03:43:34.559Z,99447.09
2023-04-13T03:46:09.336Z,99439.69
2023-04-13T03:48:37.654Z,99451.72
2023-04-13T03:51:07.097Z,99459.13
2023-04-13T03:53:46.155Z,99469.38
2023-04-13T03:56:13.202Z,99470.44
2023-04-13T03:58:40.055Z,99471.22
2023-04-13T04:01:08.177Z,99472.59
2023-04-13T04:03:45.351Z,99474.66
2023-04-13T04:06:12.257Z,99474.97
2023-04-13T04:08:43.991Z,99482.03
2023-04-13T04:11:23.052Z,99480.41
2023-04-13T04:13:49.961Z,99485.28
2023-04-13T04:16:17.764Z,99495.94
2023-04-13T04:18:51.549Z,99493.16
2023-04-13T04:21:21.839Z,99501.00
2023-04-13T04:23:49.364Z,99500.63
2023-04-13T04:26:17.965Z,99510.91
2023-04-13T04:29:02.540Z,99508.59
2023-04-13T04:31:36.794Z,99520.03
2023-04-13T04:34:10.692Z,99507.69
2023-04-13T04:36:41.905Z,99512.81
2023-04-13T04:39:10.040Z,99514.91
2023-04-13T04:41:45.861Z,99517.66
2023-04-13T04:44:16.768Z,99526.59
2023-04-13T04:46:44.661Z,99524.16
2023-04-13T04:49:15.036Z,99531.34
2023-04-13T04:51:42.145Z,99536.06
2023-04-13T04:54:12.620Z,99541.25
2023-04-13T04:56:39.585Z,99550.59
2023-04-13T04:59:07.161Z,99539.34
2023-04-13T05:01:43.336Z,99548.38
2023-04-13T05:04:12.969Z,99560.13
2023-04-13T05:06:42.893Z,99554.88
2023-04-13T05:09:15.292Z,99554.56
2023-04-13T05:11:47.802Z,99555.34
2023-04-13T05:14:15.765Z,99563.28
2023-04-13T05:16:42.686Z,99566.63
2023-04-13T05:19:25.345Z,99576.31
2023-04-13T05:21:59.605Z,99571.22
2023-04-13T05:24:27.326Z,99579.84
2023-04-13T05:26:56.938Z,99580.63
2023-04-13T05:29:23.683Z,99582.31
2023-04-13T05:31:51.175Z,99590.94
2023-04-13T05:34:18.999Z,99585.25
2023-04-13T05:37:04.607Z,99598.19
2023-04-13T05:39:32.076Z,99602.22
2023-04-13T05:41:59.088Z,99603.88
2023-04-13T05:44:28.001Z,99605.19
2023-04-13T05:46:55.160Z,99606.38
2023-04-13T05:49:22.342Z,99619.38
2023-04-13T05:51:49.152Z,99613.84
2023-04-13T05:54:17.545Z,99619.25
2023-04-13T05:56:48.135Z,99622.53
2023-04-13T05:59:15.832Z,99629.84
2023-04-13T06:01:42.904Z,99626.38
2023-04-13T06:04:11.853Z,99641.81
2023-04-13T06:06:41.038Z,99638.81
2023-04-13T06:09:08.977Z,99639.34
2023-04-13T06:11:36.064Z,99651.06
2023-04-13T06:14:03.372Z,99650.22
2023-04-13T06:16:30.142Z,99664.78
2023-04-13T06:19:00.018Z,99654.22
2023-04-13T06:21:30.316Z,99658.13
2023-04-13T06:23:57.467Z,99671.91
2023-04-13T06:26:33.525Z,99664.00
2023-04-13T06:29:02.736Z,99670.19
2023-04-13T06:31:35.438Z,99666.22
2023-04-13T06:34:06.028Z,99674.78
2023-04-13T06:36:35.835Z,99682.25
2023-04-13T06:39:03.796Z,99685.09
2023-04-13T06:41:32.781Z,99685.34
2023-04-13T06:44:14.182Z,99682.78
2023-04-13T06:46:53.323Z,99691.66
2023-04-13T06:49:21.536Z,99713.41
2023-04-13T06:51:49.964Z,99699.94
2023-04-13T06:54:17.011Z,99716.44
2023-04-13T06:56:48.203Z,99713.78
2023-04-13T06:59:15.174Z,99718.66
2023-04-13T07:01:42.626Z,99725.78
2023-04-13T07:04:09.562Z,99722.00
2023-04-13T07:06:38.392Z,99731.66
2023-04-13T07:09:05.299Z,99738.81
2023-04-13T07:11:33.082Z,99733.88
2023-04-13T07:14:01.424Z,99731.06
2023-04-13T07:16:28.524Z,99745.91
2023-04-13T07:18:55.415Z,99750.75
2023-04-13T07:21:22.391Z,99740.69
2023-04-13T07:23:55.651Z,99758.94
2023-04-13T07:26:23.194Z,99764.63
2023-04-13T07:28:50.169Z,99771.38
2023-04-13T07:31:17.689Z,99780.38
2023-04-13T07:33:47.758Z,99776.94
2023-04-13T07:36:18.260Z,99781.84
2023-04-13T07:38:50.421Z,99781.25
2023-04-13T07:41:22.848Z,99788.06
2023-04-13T07:43:53.713Z,99791.19
2023-04-13T07:46:27.195Z,99800.13
2023-04-13T07:48:55.480Z,99798.66
2023-04-13T07:51:27.231Z,99801.13
2023-04-13T07:53:54.769Z,99805.03
2023-04-13T07:56:22.851Z,99809.22
2023-04-13T07:58:52.156Z,99802.03
2023-04-13T08:01:19.812Z,99805.78
2023-04-13T08:03:47.029Z,99815.28
2023-04-13T08:06:21.310Z,99820.03
2023-04-13T08:08:48.221Z,99825.84
2023-04-13T08:11:15.916Z,99817.69
2023-04-13T08:13:45.195Z,99818.81
2023-04-13T08:16:12.495Z,99836.25
2023-04-13T08:18:42.598Z,99840.53
2023-04-13T08:21:12.678Z,99840.56
2023-04-13T08:23:43.817Z,99851.75
2023-04-13T08:26:18.754Z,99843.66
2023-04-13T08:28:50.604Z,99850.53
2023-04-13T08:31:17.847Z,99841.16
2023-04-13T08:33:53.357Z,99849.44
2023-04-13T08:36:24.000Z,99855.53
2023-04-13T08:38:58.776Z,99843.56
2023-04-13T08:41:29.799Z,99857.34
2023-04-13T08:43:57.442Z,99854.75
2023-04-13T08:46:27.593Z,99856.41
2023-04-13T08:48:59.280Z,99861.31
2023-04-13T08:51:36.515Z,99864.81
2023-04-13T08:54:04.510Z,99863.63
2023-04-13T08:56:45.419Z,99866.16
2023-04-13T08:59:18.029Z,99880.69
2023-04-13T09:01:48.084Z,99884.19
2023-04-13T09:04:18.472Z,99884.03
2023-04-13T09:06:50.431Z,99892.56
2023-04-13T09:09:21.465Z,99901.63
2023-04-13T09:11:50.125Z,99894.63
2023-04-13T09:14:20.416Z,99904.09
2023-04-13T09:16:48.501Z,99908.75
2023-04-13T09:19:33.552Z,99903.31
2023-04-13T09:22:14.476Z,99916.75
2023-04-13T09:24:42.168Z,99919.06
2023-04-13T09:27:19.462Z,99907.56
2023-04-13T09:29:50.643Z,99911.41
2023-04-13T09:32:28.175Z,99920.84
2023-04-13T09:35:02.887Z,99927.00
2023-04-13T09:37:35.289Z,99918.06
2023-04-13T09:40:15.287Z,99945.22
2023-04-13T09:42:56.692Z,99933.69
2023-04-13T09:45:23.697Z,99938.00
2023-04-13T09:47:52.492Z,99943.78
2023-04-13T09:50:24.824Z,99948.53
2023-04-13T09:53:01.442Z,99952.97
2023-04-13T09:55:28.994Z,99946.47
2023-04-13T09:57:56.202Z,99951.09
2023-04-13T10:00:23.720Z,99945.06
2023-04-13T10:02:51.753Z,99947.56
2023-04-13T10:05:19.683Z,99939.31
2023-04-13T10:07:47.577Z,99950.13
2023-04-13T10:10:14.344Z,99948.88
2023-04-13T10:12:47.121Z,99956.69
2023-04-13T10:15:43.464Z,99959.16
2023-04-13T10:18:42.375Z,99963.38
2023-04-13T10:21:09.765Z,99973.53
2023-04-13T10:23:39.093Z,99963.72
2023-04-13T10:26:07.274Z,99972.75
2023-04-13T10:28:45.289Z,99968.03
2023-04-13T10:31:12.207Z,99973.78
2023-04-13T10:33:51.746Z,99983.31
2023-04-13T10:36:18.495Z,99992.59
2023-04-13T10:38:46.607Z,99986.31
2023-04-13T10:41:27.368Z,99993.78
2023-04-13T10:44:04.558Z,100000.50
2023-04-13T10:46:34.349Z,100004.13
2023-04-13T10:49:02.524Z,100010.22
2023-04-13T10:51:44.715Z,100025.13
2023-04-13T10:54:14.039Z,100021.44
2023-04-13T10:56:40.994Z,100025.19
2023-04-13T10:59:08.336Z,100020.22
2023-04-13T11:01:35.909Z,100027.09
2023-04-13T11:04:07.817Z,100027.69
2023-04-13T11:06:37.984Z,100026.31
2023-04-13T11:09:10.697Z,100027.53
2023-04-13T11:11:39.639Z,100018.47
2023-04-13T11:14:08.553Z,100021.63
2023-04-13T11:16:45.908Z,100013.03
2023-04-13T11:19:13.296Z,100030.97
2023-04-13T11:21:40.073Z,100020.28
2023-04-13T11:24:07.122Z,100017.16
2023-04-13T11:26:35.764Z,100014.41
2023-04-13T11:29:03.972Z,100028.13
2023-04-13T11:31:40.806Z,100025.59
2023-04-13T11:34:09.807Z,100025.66
2023-04-13T11:36:39.082Z,100023.94
2023-04-13T11:39:10.982Z,100030.53
2023-04-13T11:41:43.801Z,100035.41
2023-04-13T11:44:13.654Z,100044.13
2023-04-13T11:46:40.420Z,100046.88
2023-04-13T11:49:07.604Z,100050.38
2023-04-13T11:51:35.218Z,100044.94
2023-04-13T11:54:02.592Z,100055.72
2023-04-13T11:56:31.259Z,100045.56
2023-04-13T11:58:58.890Z,100049.09
2023-04-13T12:01:32.241Z,100052.72
2023-04-13T12:04:15.737Z,100044.72
2023-04-13T12:06:46.243Z,100045.59
2023-04-13T12:09:17.294Z,100049.59
2023-04-13T12:11:52.129Z,100044.28
2023-04-13T12:17:04.507Z,100040.09
2023-04-13T12:19:43.806Z,100045.31
2023-04-13T12:22:12.237Z,100055.59
2023-04-13T12:24:40.117Z,100047.00
2023-04-13T12:29:38.454Z,100053.94
2023-04-13T12:32:11.950Z,100057.31
2023-04-13T12:34:38.660Z,100052.22
2023-04-13T12:37:05.559Z,100056.34
2023-04-13T12:39:35.453Z,100058.22
2023-04-13T12:42:02.782Z,100068.78
2023-04-13T12:44:31.197Z,100054.66
2023-04-13T12:47:02.453Z,100054.81
2023-04-13T12:49:30.313Z,100061.28
2023-04-13T12:51:57.105Z,100062.06
2023-04-13T12:54:23.876Z,100057.03
2023-04-13T12:56:50.706Z,100053.03
2023-04-13T12:59:23.258Z,100065.34
2023-04-13T13:01:50.631Z,100065.44
2023-04-13T13:04:20.534Z,100058.31
2023-04-13T13:06:54.180Z,100063.53
2023-04-13T13:09:23.541Z,100057.41
2023-04-13T13:11:50.447Z,100060.53
2023-04-13T13:14:17.194Z,100070.50
2023-04-13T13:16:44.021Z,100075.03
2023-04-13T13:19:11.098Z,100079.16
2023-04-13T13:21:37.955Z,100084.44
2023-04-13T13:24:05.270Z,100078.22
2023-04-13T13:26:51.689Z,100080.06
2023-04-13T13:29:24.658Z,100086.16
2023-04-13T13:31:51.761Z,100089.25
2023-04-13T13:34:18.856Z,100087.53
2023-04-13T13:36:49.314Z,100090.41
2023-04-13T13:39:18.076Z,100096.53
2023-04-13T13:41:44.801Z,100080.59
2023-04-13T13:44:11.617Z,100096.84
2023-04-13T13:46:38.398Z,100084.13
2023-04-13T13:49:06.021Z,100086.16
2023-04-13T13:52:01.867Z,100080.47
2023-04-13T13:54:32.381Z,100085.28
2023-04-13T13:56:59.148Z,100093.69
2023-04-13T13:59:26.543Z,100083.06
2023-04-13T14:01:53.542Z,100086.75
2023-04-13T14:04:20.509Z,100089.31
2023-04-13T14:06:49.588Z,100096.47
2023-04-13T14:09:17.295Z,100093.75
2023-04-13T14:11:44.241Z,100107.13
2023-04-13T14:14:20.374Z,100107.50
2023-04-13T14:16:48.888Z,100103.25
2023-04-13T14:19:15.691Z,100104.13
2023-04-13T14:21:42.728Z,100116.16
2023-04-13T14:24:12.803Z,100107.91
2023-04-13T14:26:39.992Z,100097.69
2023-04-13T14:29:09.029Z,100101.94
2023-04-13T14:31:35.823Z,100106.44
2023-04-13T14:34:02.825Z,100101.31
2023-04-13T14:36:29.736Z,100106.06
2023-04-13T14:38:56.499Z,100112.53
2023-04-13T14:41:23.260Z,100117.53
2023-04-13T14:43:50.152Z,100118.41
2023-04-13T14:46:17.064Z,100122.31
2023-04-13T14:48:43.841Z,100118.78
2023-04-13T14:51:16.980Z,100121.97
2023-04-13T14:53:43.955Z,100118.88
2023-04-13T14:56:11.640Z,100110.47
2023-04-13T14:58:38.617Z,100119.03
2023-04-13T15:01:16.609Z,100115.28
2023-04-13T15:03:43.738Z,100114.69
2023-04-13T15:06:11.697Z,100125.66
2023-04-13T15:08:39.072Z,100132.53
2023-04-13T15:11:06.502Z,100132.31
2023-04-13T15:13:33.170Z,100127.75
2023-04-13T15:16:00.008Z,100126.84
2023-04-13T15:18:26.770Z,100128.31
2023-04-13T15:20:53.731Z,100129.56
2023-04-13T15:23:24.640Z,100135.69
2023-04-13T15:25:51.722Z,100128.38
2023-04-13T15:28:20.192Z,100130.84
2023-04-13T15:30:47.068Z,100140.84
2023-04-13T15:33:13.778Z,100132.94
2023-04-13T15:35:40.670Z,100141.75
2023-04-13T15:38:09.363Z,100150.09
2023-04-13T15:40:39.441Z,100146.19
2023-04-13T15:43:06.784Z,100148.91
2023-04-13T15:45:33.767Z,100153.50
2023-04-13T15:48:03.430Z,100162.06
2023-04-13T15:50:32.712Z,100168.22
2023-04-13T15:53:02.544Z,100164.84
2023-04-13T15:55:29.310Z,100169.00
2023-04-13T15:57:57.260Z,100163.47
2023-04-13T16:00:24.954Z,100168.34
2023-04-13T16:02:51.833Z,100167.03
2023-04-13T16:05:21.934Z,100173.56
2023-04-13T16:07:48.895Z,100187.41
2023-04-13T16:10:16.793Z,100183.72
2023-04-13T16:12:44.756Z,100192.09
2023-04-13T16:15:12.440Z,100193.41
2023-04-13T16:17:43.547Z,100196.56
2023-04-13T16:20:14.487Z,100199.47
2023-04-13T16:22:50.491Z,100205.63
2023-04-13T16:25:19.128Z,100208.06
2023-04-13T16:27:48.448Z,100208.16
2023-04-13T16:30:17.474Z,100206.31
2023-04-13T16:32:44.986Z,100207.81
2023-04-13T16:35:12.769Z,100218.06
2023-04-13T16:37:42.304Z,100217.84
2023-04-13T16:40:16.305Z,100214.16
2023-04-13T16:42:43.776Z,100216.16
2023-04-13T16:45:13.753Z,100224.59
2023-04-13T16:47:42.693Z,100231.63
2023-04-13T16:50:10.658Z,100237.31
2023-04-13T16:52:39.208Z,100227.56
2023-04-13T16:55:06.969Z,100230.91
2023-04-13T16:57:33.839Z,100230.31
2023-04-13T17:00:06.286Z,100235.16
2023-04-13T17:02:38.372Z,100242.53
2023-04-13T17:05:09.259Z,100249.69
2023-04-13T17:07:37.875Z,100240.84
2023-04-13T17:10:05.520Z,100248.13
2023-04-13T17:12:32.556Z,100242.84
2023-04-13T17:15:00.867Z,100247.06
2023-04-13T17:17:28.291Z,100246.00
2023-04-13T17:19:55.461Z,100251.22
2023-04-13T17:22:22.635Z,100245.00
2023-04-13T17:24:49.965Z,100245.00
2023-04-13T17:27:17.500Z,100249.19
2023-04-13T17:29:44.323Z,100238.56
2023-04-13T17:32:11.425Z,100242.94
2023-04-13T17:34:38.217Z,100234.00
2023-04-13T17:37:05.344Z,100245.03
2023-04-13T17:39:33.284Z,100242.69
2023-04-13T17:42:00.050Z,100250.16
2023-04-13T17:44:26.896Z,100256.69
2023-04-13T17:46:54.553Z,100263.78
2023-04-13T17:49:22.201Z,100263.72
2023-04-13T17:51:49.248Z,100263.91
2023-04-13T17:54:16.074Z,100266.94
2023-04-13T17:56:47.314Z,100264.69
2023-04-13T17:59:23.679Z,100261.56
2023-04-13T18:01:54.485Z,100271.59
2023-04-13T18:04:21.490Z,100276.09
2023-04-13T18:06:48.822Z,100276.09
2023-04-13T18:09:18.636Z,100279.16
2023-04-13T18:11:48.088Z,100281.53
2023-04-13T18:14:18.021Z,100282.38
2023-04-13T18:16:44.854Z,100295.91
2023-04-13T18:19:11.878Z,100296.28
2023-04-13T18:21:39.505Z,100299.06
2023-04-13T18:24:14.346Z,100317.97
2023-04-13T18:26:44.911Z,100302.50
2023-04-13T18:35:20.014Z,100317.19
2023-04-13T18:37:46.991Z,100322.31
2023-04-13T18:40:13.793Z,100333.38
2023-04-13T18:42:41.433Z,100337.81
2023-04-13T18:45:09.157Z,100350.16
2023-04-13T18:47:39.774Z,100357.41
2023-04-13T18:50:08.221Z,100364.28
2023-04-13T18:52:36.100Z,100365.59
2023-04-13T18:55:03.705Z,100352.53
2023-04-13T18:57:30.796Z,100369.44
2023-04-13T18:59:58.158Z,100376.97
2023-04-13T19:02:28.788Z,100377.09
2023-04-13T19:04:57.371Z,100383.19
2023-04-13T19:07:24.771Z,100378.53
2023-04-13T19:09:52.222Z,100373.63
2023-04-13T19:12:19.581Z,100383.69
2023-04-13T19:14:46.703Z,100392.53
2023-04-13T19:17:16.611Z,100392.13
2023-04-13T19:19:43.518Z,100386.97
2023-04-13T19:22:10.765Z,100395.16
2023-04-13T19:24:37.758Z,100385.97
2023-04-13T19:27:07.295Z,100399.97
2023-04-13T19:29:36.281Z,100407.13
2023-04-13T19:32:03.433Z,100410.59
2023-04-13T19:34:30.582Z,100411.16
2023-04-13T19:36:57.465Z,100417.63
2023-04-13T19:39:24.374Z,100413.56
2023-04-13T19:41:52.337Z,100414.69
2023-04-13T19:44:19.437Z,100427.34
2023-04-13T19:46:46.765Z,100430.00
2023-04-13T19:49:13.848Z,100431.44
2023-04-13T19:51:42.618Z,100434.28
2023-04-13T19:54:11.630Z,100436.25
2023-04-13T19:56:38.722Z,100444.50
2023-04-13T19:59:06.580Z,100442.66
2023-04-13T20:01:34.676Z,100447.63
2023-04-13T20:04:04.459Z,100448.66
2023-04-13T20:06:33.187Z,100450.13
2023-04-13T20:09:14.351Z,100449.03
2023-04-13T20:11:41.937Z,100456.38
2023-04-13T20:14:11.747Z,100455.72
2023-04-13T20:16:38.954Z,100464.72
2023-04-13T20:19:06.922Z,100455.69
2023-04-13T20:21:35.617Z,100462.69
2023-04-13T20:24:03.566Z,100466.06
2023-04-13T20:26:31.627Z,100466.16
2023-04-13T20:28:59.749Z,100462.06
2023-04-13T20:31:28.764Z,100468.72
2023-04-13T20:33:55.964Z,100467.00
2023-04-13T20:36:25.184Z,100462.97
2023-04-13T20:38:52.762Z,100464.91
2023-04-13T20:41:22.093Z,100459.81
2023-04-13T20:43:50.753Z,100459.81
2023-04-13T20:46:17.717Z,100459.16
2023-04-13T20:51:15.911Z,100465.06
2023-04-13T20:53:43.067Z,100466.34
2023-04-13T20:56:10.194Z,100470.28
2023-04-13T20:58:37.864Z,100465.88
2023-04-13T21:01:08.006Z,100472.53
2023-04-13T21:03:35.157Z,100472.34
2023-04-13T21:06:05.278Z,100477.63
2023-04-13T21:08:32.945Z,100477.75
2023-04-13T21:11:01.794Z,100481.47
2023-04-13T21:13:30.472Z,100472.94
2023-04-13T21:15:57.293Z,100485.34
2023-04-13T21:18:25.572Z,100484.94
2023-04-13T21:20:55.534Z,100487.91
2023-04-13T21:23:24.405Z,100482.41
2023-04-13T21:25:51.242Z,100479.25
2023-04-13T21:28:18.037Z,100483.00
2023-04-13T21:30:44.808Z,100487.69
2023-04-13T21:33:11.960Z,100494.22
2023-04-13T21:35:41.858Z,100483.22
2023-04-13T21:38:08.769Z,100480.47
2023-04-13T21:40:37.497Z,100483.19
2023-04-13T21:43:07.772Z,100479.69
2023-04-13T21:45:35.119Z,100482.59
2023-04-13T21:48:02.075Z,100483.69
2023-04-13T21:50:28.884Z,100480.00
2023-04-13T21:52:56.137Z,100481.13
2023-04-13T21:55:22.928Z,100491.78
2023-04-13T21:57:52.276Z,100476.41
2023-04-13T22:00:19.720Z,100476.53
2023-04-13T22:02:49.066Z,100485.59
2023-04-13T22:05:17.043Z,100487.34
2023-04-13T22:07:44.458Z,100480.69
2023-04-13T22:10:12.322Z,100485.94
2023-04-13T22:12:42.307Z,100487.06
2023-04-13T22:15:09.627Z,100474.91
2023-04-13T22:17:39.955Z,100482.91
2023-04-13T22:20:07.425Z,100480.50
2023-04-13T22:22:34.332Z,100476.31
2023-04-13T22:25:01.162Z,100478.06
2023-04-13T22:27:31.165Z,100480.22
2023-04-13T22:30:03.283Z,100474.91
2023-04-13T22:32:32.610Z,100472.66
2023-04-13T22:35:01.975Z,100471.91
2023-04-13T22:37:31.798Z,100480.81
2023-04-13T22:40:02.427Z,100486.09
2023-04-13T22:42:29.490Z,100480.69
2023-04-13T22:44:56.792Z,100490.53
2023-04-13T22:47:24.576Z,100483.22
2023-04-13T22:49:53.982Z,100493.25
2023-04-13T22:52:21.063Z,100493.56
2023-04-13T22:54:49.869Z,100487.81
2023-04-13T22:57:16.963Z,100485.13
2023-04-13T22:59:44.067Z,100489.59
2023-04-13T23:02:11.212Z,100486.22
2023-04-13T23:04:38.619Z,100496.78
2023-04-13T23:07:05.623Z,100481.50
2023-04-13T23:09:32.679Z,100482.19
2023-04-13T23:11:59.637Z,100480.53
2023-04-13T23:14:26.336Z,100476.63
2023-04-13T23:16:53.092Z,100480.63
2023-04-13T23:19:20.138Z,100486.34
2023-04-13T23:21:46.953Z,100492.13
2023-04-13T23:24:13.986Z,100495.00
2023-04-13T23:26:41.171Z,100494.78
2023-04-13T23:29:07.953Z,100485.16
2023-04-13T23:31:34.843Z,100490.16
2023-04-13T23:34:01.638Z,100493.53
2023-04-13T23:36:28.709Z,100482.84
2023-04-13T23:38:55.618Z,100503.88
2023-04-13T23:41:22.392Z,100499.31
2023-04-13T23:43:51.778Z,100494.19
2023-04-13T23:46:18.635Z,100493.25
2023-04-13T23:48:45.823Z,100497.53
2023-04-13T23:51:12.620Z,100496.75
2023-04-13T23:53:39.378Z,100498.50
2023-04-13T23:56:07.294Z,100493.03
2023-04-13T23:58:34.091Z,100503.72
